Time;durP1;ratioP1;P1;durP2;ratioP2;P2;SDS_P1;SDS_P2;PMS_P1;PMS_P2;Temp;Humidity;BMP_temperature;BMP_pressure;BME280_temperature;BME280_humidity;BME280_pressure;Samples;Min_cycle;Max_cycle;Signal;HPM_P1;HPM_P2
2024/01/07 00:00:38;;;;;;;16.20;6.57;;;;;;;-148.88;100.00;-17125.47;5040940;28;20087;-83
2024/01/07 00:03:04;;;;;;;13.70;6.07;;;;;;;-148.88;100.00;-17125.47;5043495;28;20075;-83
2024/01/07 00:05:29;;;;;;;15.70;6.32;;;;;;;-148.88;100.00;-17125.47;5043576;28;20025;-83
2024/01/07 00:07:54;;;;;;;17.55;6.80;;;;;;;-148.88;100.00;-17125.47;5043605;28;20022;-83
2024/01/07 00:10:20;;;;;;;15.18;6.47;;;;;;;-148.88;100.00;-17125.47;5042716;28;20029;-82
2024/01/07 00:12:45;;;;;;;12.98;6.05;;;;;;;-148.88;100.00;-17125.47;5040581;28;20504;-83
2024/01/07 00:15:10;;;;;;;13.75;6.13;;;;;;;-148.88;100.00;-17125.47;5044188;28;20035;-83
2024/01/07 00:17:36;;;;;;;13.52;6.40;;;;;;;-148.88;100.00;-17125.47;5043479;28;20045;-82
2024/01/07 00:20:01;;;;;;;12.88;5.75;;;;;;;-148.88;100.00;-17125.47;5043111;28;20025;-83
2024/01/07 00:22:26;;;;;;;15.95;6.47;;;;;;;-148.88;100.00;-17125.47;5043450;28;20026;-83
2024/01/07 00:24:52;;;;;;;11.85;5.75;;;;;;;-148.88;100.00;-17125.47;5046933;28;20099;-83
2024/01/07 00:27:17;;;;;;;15.02;7.28;;;;;;;-148.88;100.00;-17125.47;5045562;28;20112;-84
2024/01/07 00:29:43;;;;;;;17.90;6.32;;;;;;;-148.88;100.00;-17125.47;5044158;28;20388;-82
2024/01/07 00:32:08;;;;;;;14.30;6.93;;;;;;;-148.88;100.00;-17125.47;5046559;28;20032;-83
2024/01/07 00:34:33;;;;;;;15.05;7.32;;;;;;;-148.88;100.00;-17125.47;5044774;28;20032;-82
2024/01/07 00:36:58;;;;;;;13.55;5.72;;;;;;;-148.88;100.00;-17125.47;5043788;28;20029;-83
2024/01/07 00:39:24;;;;;;;15.52;6.07;;;;;;;-148.88;100.00;-17125.47;5045228;28;20048;-82
2024/01/07 00:41:49;;;;;;;16.05;7.10;;;;;;;-148.88;100.00;-17125.47;5043926;28;20095;-82
2024/01/07 00:44:14;;;;;;;16.30;7.32;;;;;;;-148.88;100.00;-17125.47;5044852;28;20056;-82
2024/01/07 00:46:40;;;;;;;17.80;6.57;;;;;;;-148.88;100.00;-17125.47;5038043;28;20025;-82
2024/01/07 00:49:05;;;;;;;16.10;8.05;;;;;;;-148.88;100.00;-17125.47;5035608;28;20024;-82
2024/01/07 00:51:30;;;;;;;16.38;6.88;;;;;;;-148.88;100.00;-17125.47;5037375;28;20496;-82
2024/01/07 00:53:56;;;;;;;13.38;6.45;;;;;;;-148.88;100.00;-17125.47;5037504;28;20099;-82
2024/01/07 00:56:21;;;;;;;17.10;6.75;;;;;;;-148.88;100.00;-17125.47;5035891;28;20045;-82
2024/01/07 00:58:46;;;;;;;14.77;6.60;;;;;;;-148.88;100.00;-17125.47;5037447;28;20053;-82
2024/01/07 01:01:11;;;;;;;15.55;6.47;;;;;;;-148.88;100.00;-17125.47;5035955;28;20120;-82
2024/01/07 01:03:37;;;;;;;15.60;7.63;;;;;;;-148.88;100.00;-17125.47;5035825;28;20034;-81
2024/01/07 01:06:03;;;;;;;16.20;5.82;;;;;;;-148.88;100.00;-17125.47;5037428;28;20024;-82
2024/01/07 01:08:29;;;;;;;20.35;7.82;;;;;;;-148.88;100.00;-17125.47;5035580;28;20480;-82
2024/01/07 01:10:54;;;;;;;15.40;6.75;;;;;;;-148.88;100.00;-17125.47;5036833;28;20031;-82
2024/01/07 01:13:20;;;;;;;13.75;6.78;;;;;;;-148.88;100.00;-17125.47;5035715;28;20511;-81
2024/01/07 01:15:45;;;;;;;15.98;6.57;;;;;;;-148.88;100.00;-17125.47;5035858;28;20120;-82
2024/01/07 01:18:10;;;;;;;15.20;7.07;;;;;;;-148.88;100.00;-17125.47;5037839;28;20108;-81
2024/01/07 01:20:36;;;;;;;12.48;6.97;;;;;;;-148.88;100.00;-17125.47;5036320;28;20103;-82
2024/01/07 01:23:01;;;;;;;16.83;7.47;;;;;;;-148.88;100.00;-17125.47;5038733;28;20021;-82
2024/01/07 01:25:27;;;;;;;17.20;6.97;;;;;;;-148.88;100.00;-17125.47;5036557;28;20033;-82
2024/01/07 01:27:52;;;;;;;19.35;7.18;;;;;;;-148.88;100.00;-17125.47;5037789;28;20029;-82
2024/01/07 01:30:17;;;;;;;19.60;7.80;;;;;;;-148.88;100.00;-17125.47;5036607;28;20028;-82
2024/01/07 01:32:45;;;;;;;15.73;6.72;;;;;;;-148.88;100.00;-17125.47;5038242;28;20046;-82
2024/01/07 01:35:10;;;;;;;19.48;7.90;;;;;;;-148.88;100.00;-17125.47;5037261;28;20025;-82
2024/01/07 01:37:36;;;;;;;17.75;6.97;;;;;;;-148.88;100.00;-17125.47;5036123;28;20115;-82
2024/01/07 01:40:03;;;;;;;17.85;6.88;;;;;;;-148.88;100.00;-17125.47;5036956;28;20040;-82
2024/01/07 01:42:28;;;;;;;16.75;7.15;;;;;;;-148.88;100.00;-17125.47;5038300;28;20444;-82
2024/01/07 01:44:56;;;;;;;13.98;6.57;;;;;;;-148.88;100.00;-17125.47;5037617;28;20064;-82
2024/01/07 01:47:22;;;;;;;15.65;7.10;;;;;;;-148.88;100.00;-17125.47;5038447;28;20024;-81
2024/01/07 01:49:48;;;;;;;17.13;6.45;;;;;;;-148.88;100.00;-17125.47;5038407;28;20029;-81
2024/01/07 01:52:14;;;;;;;14.38;6.35;;;;;;;-148.88;100.00;-17125.47;5037322;28;20116;-82
2024/01/07 01:54:40;;;;;;;17.55;7.75;;;;;;;-148.88;100.00;-17125.47;5037940;28;20053;-82
2024/01/07 01:57:05;;;;;;;21.40;6.68;;;;;;;-148.88;100.00;-17125.47;5036497;28;20044;-82
2024/01/07 01:59:33;;;;;;;15.40;6.35;;;;;;;-148.88;100.00;-17125.47;5038106;28;20029;-82
2024/01/07 02:01:59;;;;;;;22.77;7.53;;;;;;;-148.88;100.00;-17125.47;5039457;28;20384;-82
2024/01/07 02:04:24;;;;;;;15.85;7.25;;;;;;;-148.88;100.00;-17125.47;5038414;28;20495;-82
2024/01/07 02:06:50;;;;;;;18.98;7.38;;;;;;;-148.88;100.00;-17125.47;5037176;28;20030;-81
2024/01/07 02:09:15;;;;;;;15.38;7.45;;;;;;;-148.88;100.00;-17125.47;5038792;28;20021;-82
2024/01/07 02:11:41;;;;;;;24.13;7.57;;;;;;;-148.88;100.00;-17125.47;5037474;28;20025;-82
2024/01/07 02:14:06;;;;;;;13.13;6.43;;;;;;;-148.88;100.00;-17125.47;5038888;28;20044;-81
2024/01/07 02:16:32;;;;;;;16.05;6.82;;;;;;;-148.88;100.00;-17125.47;5038804;28;20018;-82
2024/01/07 02:18:57;;;;;;;22.13;7.03;;;;;;;-148.88;100.00;-17125.47;5039050;28;20081;-82
2024/01/07 02:21:23;;;;;;;17.63;8.38;;;;;;;-148.88;100.00;-17125.47;5038564;28;20085;-81
2024/01/07 02:23:48;;;;;;;23.13;9.23;;;;;;;-148.88;100.00;-17125.47;5037798;28;20105;-81
2024/01/07 02:26:13;;;;;;;16.67;7.80;;;;;;;-148.88;100.00;-17125.47;5040908;28;20025;-82
2024/01/07 02:28:39;;;;;;;19.55;8.52;;;;;;;-148.88;100.00;-17125.47;5041715;28;20022;-82
2024/01/07 02:31:04;;;;;;;16.20;6.70;;;;;;;-148.88;100.00;-17125.47;5043090;28;20025;-82
2024/01/07 02:33:30;;;;;;;15.68;7.88;;;;;;;-148.88;100.00;-17125.47;5045616;28;20036;-82
2024/01/07 02:35:56;;;;;;;22.00;8.25;;;;;;;-148.88;100.00;-17125.47;5043399;28;20048;-82
2024/01/07 02:38:21;;;;;;;20.45;7.90;;;;;;;-148.88;100.00;-17125.47;5042899;28;20014;-81
2024/01/07 02:40:46;;;;;;;19.73;7.63;;;;;;;-148.88;100.00;-17125.47;5044233;28;20056;-82
2024/01/07 02:43:12;;;;;;;16.48;7.78;;;;;;;-148.88;100.00;-17125.47;5043495;28;20048;-82
2024/01/07 02:45:37;;;;;;;18.42;9.13;;;;;;;-148.88;100.00;-17125.47;5044064;28;20049;-82
2024/01/07 02:48:03;;;;;;;19.02;7.57;;;;;;;-148.88;100.00;-17125.47;5043902;28;20029;-82
2024/01/07 02:50:28;;;;;;;17.83;7.65;;;;;;;-148.88;100.00;-17125.47;5044435;28;20133;-82
2024/01/07 02:52:53;;;;;;;17.30;7.45;;;;;;;-148.88;100.00;-17125.47;5043752;28;20018;-81
2024/01/07 02:55:19;;;;;;;15.77;7.18;;;;;;;-148.88;100.00;-17125.47;5042231;28;20033;-82
2024/01/07 02:57:44;;;;;;;15.43;7.53;;;;;;;-148.88;100.00;-17125.47;5042348;28;20014;-82
2024/01/07 03:00:10;;;;;;;14.38;7.65;;;;;;;-148.88;100.00;-17125.47;5043279;28;20472;-82
2024/01/07 03:02:36;;;;;;;16.17;7.72;;;;;;;-148.88;100.00;-17125.47;5043718;28;20033;-82
2024/01/07 03:05:02;;;;;;;15.75;7.57;;;;;;;-148.88;100.00;-17125.47;5042448;28;20064;-82
2024/01/07 03:07:27;;;;;;;15.77;6.80;;;;;;;-148.88;100.00;-17125.47;5042438;28;20025;-81
2024/01/07 03:09:52;;;;;;;20.00;6.78;;;;;;;-148.88;100.00;-17125.47;5042804;28;20057;-81
2024/01/07 03:12:18;;;;;;;13.68;6.38;;;;;;;-148.88;100.00;-17125.47;5041660;28;20031;-82
2024/01/07 03:14:43;;;;;;;14.65;6.20;;;;;;;-148.88;100.00;-17125.47;5042047;28;20025;-81
2024/01/07 03:17:12;;;;;;;12.07;6.55;;;;;;;-148.88;100.00;-17125.47;5041348;28;20028;-81
2024/01/07 03:19:38;;;;;;;11.20;6.13;;;;;;;-148.88;100.00;-17125.47;5041583;28;20036;-82
2024/01/07 03:22:05;;;;;;;11.70;6.03;;;;;;;-148.88;100.00;-17125.47;5041259;28;20029;-81
2024/01/07 03:24:31;;;;;;;15.88;5.95;;;;;;;-148.88;100.00;-17125.47;5041961;28;20420;-82
2024/01/07 03:26:56;;;;;;;17.58;7.32;;;;;;;-148.88;100.00;-17125.47;5040965;28;20032;-81
2024/01/07 03:29:21;;;;;;;13.68;5.70;;;;;;;-148.88;100.00;-17125.47;5041295;28;20053;-81
2024/01/07 03:31:46;;;;;;;16.30;6.82;;;;;;;-148.88;100.00;-17125.47;5040197;28;20073;-81
2024/01/07 03:34:12;;;;;;;14.50;5.78;;;;;;;-148.88;100.00;-17125.47;5038937;28;20028;-81
2024/01/07 03:36:40;;;;;;;16.90;6.55;;;;;;;-148.88;100.00;-17125.47;5039473;28;20013;-81
2024/01/07 03:39:05;;;;;;;13.02;6.25;;;;;;;-148.88;100.00;-17125.47;5041077;28;20056;-81
2024/01/07 03:41:30;;;;;;;16.85;6.47;;;;;;;-148.88;100.00;-17125.47;5041308;28;20032;-82
2024/01/07 03:43:56;;;;;;;14.02;7.00;;;;;;;-148.88;100.00;-17125.47;5040752;28;20049;-81
2024/01/07 03:46:22;;;;;;;17.00;7.05;;;;;;;-148.88;100.00;-17125.47;5039319;28;20021;-81
2024/01/07 03:48:47;;;;;;;15.10;7.15;;;;;;;-148.88;100.00;-17125.47;5039535;28;20427;-81
2024/01/07 03:51:13;;;;;;;14.10;6.10;;;;;;;-148.88;100.00;-17125.47;5038116;28;20026;-81
2024/01/07 03:53:38;;;;;;;16.45;7.68;;;;;;;-148.88;100.00;-17125.47;5040080;28;20057;-81
2024/01/07 03:56:04;;;;;;;17.65;6.97;;;;;;;-148.88;100.00;-17125.47;5039575;28;20075;-81
2024/01/07 03:58:29;;;;;;;13.07;6.93;;;;;;;-148.88;100.00;-17125.47;5039944;28;20431;-81
2024/01/07 04:00:54;;;;;;;18.00;7.68;;;;;;;-148.88;100.00;-17125.47;5039586;28;20037;-81
2024/01/07 04:03:20;;;;;;;16.10;7.40;;;;;;;-148.88;100.00;-17125.47;5040222;28;20040;-81
2024/01/07 04:05:45;;;;;;;17.38;7.50;;;;;;;-148.88;100.00;-17125.47;5039692;28;20029;-81
2024/01/07 04:08:11;;;;;;;15.00;7.10;;;;;;;-148.88;100.00;-17125.47;5039963;28;20523;-81
2024/01/07 04:10:37;;;;;;;15.93;7.35;;;;;;;-148.88;100.00;-17125.47;5041109;28;20116;-81
2024/01/07 04:13:04;;;;;;;15.10;6.75;;;;;;;-148.88;100.00;-17125.47;5041275;28;20064;-81
2024/01/07 04:15:29;;;;;;;17.33;6.80;;;;;;;-148.88;100.00;-17125.47;5039257;28;20021;-81
2024/01/07 04:18:00;;;;;;;16.40;6.53;;;;;;;-148.88;100.00;-17125.47;5039186;28;20020;-81
2024/01/07 04:20:25;;;;;;;16.75;6.30;;;;;;;-148.88;100.00;-17125.47;5039908;28;20022;-81
2024/01/07 04:22:51;;;;;;;16.88;6.95;;;;;;;-148.88;100.00;-17125.47;5039540;28;20407;-81
2024/01/07 04:25:16;;;;;;;15.57;6.93;;;;;;;-148.88;100.00;-17125.47;5039709;28;20025;-81
2024/01/07 04:27:41;;;;;;;14.35;6.55;;;;;;;-148.88;100.00;-17125.47;5038185;28;20079;-81
2024/01/07 04:30:07;;;;;;;21.50;7.32;;;;;;;-148.88;100.00;-17125.47;5039499;28;20044;-81
2024/01/07 04:32:32;;;;;;;14.40;6.35;;;;;;;-148.88;100.00;-17125.47;5039614;28;20027;-82
2024/01/07 04:34:58;;;;;;;17.15;6.10;;;;;;;-148.88;100.00;-17125.47;5039752;28;20026;-81
2024/01/07 04:37:26;;;;;;;12.45;5.88;;;;;;;-148.88;100.00;-17125.47;5039196;28;20053;-81
2024/01/07 04:39:52;;;;;;;13.77;5.53;;;;;;;-148.88;100.00;-17125.47;5039643;28;20041;-81
2024/01/07 04:42:18;;;;;;;15.65;7.00;;;;;;;-148.88;100.00;-17125.47;5038939;28;20029;-81
2024/01/07 04:44:43;;;;;;;13.73;5.25;;;;;;;-148.88;100.00;-17125.47;5041232;28;20029;-81
2024/01/07 04:47:30;;;;;;;15.07;5.43;;;;;;;-148.88;100.00;-17125.47;5041134;28;20076;-81
2024/01/07 04:49:56;;;;;;;11.05;5.25;;;;;;;-148.88;100.00;-17125.47;5041324;28;20100;-82
2024/01/07 04:52:22;;;;;;;13.95;5.50;;;;;;;-148.88;100.00;-17125.47;5041545;28;20028;-81
2024/01/07 04:54:50;;;;;;;11.68;5.40;;;;;;;-148.88;100.00;-17125.47;5041229;28;20081;-81
2024/01/07 04:57:15;;;;;;;11.80;5.43;;;;;;;-148.88;100.00;-17125.47;5040302;28;20056;-81
2024/01/07 04:59:40;;;;;;;12.27;4.78;;;;;;;-148.88;100.00;-17125.47;5046545;28;20021;-82
2024/01/07 05:02:05;;;;;;;10.20;5.25;;;;;;;-148.88;100.00;-17125.47;5042966;28;20052;-82
2024/01/07 05:04:32;;;;;;;9.85;4.65;;;;;;;-148.88;100.00;-17125.47;5043275;28;20037;-82
2024/01/07 05:06:57;;;;;;;11.25;5.07;;;;;;;-148.88;100.00;-17125.47;5043228;28;20123;-82
2024/01/07 05:09:22;;;;;;;13.18;4.70;;;;;;;-148.88;100.00;-17125.47;5043103;28;20025;-82
2024/01/07 05:11:48;;;;;;;11.38;4.32;;;;;;;-148.88;100.00;-17125.47;5042917;28;20060;-82
2024/01/07 05:14:13;;;;;;;9.68;4.45;;;;;;;-148.88;100.00;-17125.47;5042851;28;20476;-82
2024/01/07 05:16:38;;;;;;;9.85;4.85;;;;;;;-148.88;100.00;-17125.47;5042893;28;20032;-82
2024/01/07 05:19:04;;;;;;;15.73;6.75;;;;;;;-148.88;100.00;-17125.47;5041827;28;20021;-82
2024/01/07 05:21:29;;;;;;;11.43;4.53;;;;;;;-148.88;100.00;-17125.47;5041872;28;20029;-82
2024/01/07 05:23:55;;;;;;;9.32;4.80;;;;;;;-148.88;100.00;-17125.47;5040362;28;20056;-82
2024/01/07 05:26:21;;;;;;;8.65;4.32;;;;;;;-148.88;100.00;-17125.47;5040676;28;20020;-82
2024/01/07 05:28:46;;;;;;;9.43;4.47;;;;;;;-148.88;100.00;-17125.47;5040004;28;20021;-82
2024/01/07 05:31:19;;;;;;;8.27;3.88;;;;;;;-148.88;100.00;-17125.47;5039913;28;20021;-82
2024/01/07 05:33:45;;;;;;;9.60;4.43;;;;;;;-148.88;100.00;-17125.47;5037182;28;20511;-82
2024/01/07 05:36:11;;;;;;;9.48;3.63;;;;;;;-148.88;100.00;-17125.47;5038674;28;20033;-81
2024/01/07 05:38:37;;;;;;;10.88;4.93;;;;;;;-148.88;100.00;-17125.47;5038401;28;20045;-81
2024/01/07 05:41:02;;;;;;;9.73;5.05;;;;;;;-148.88;100.00;-17125.47;5038348;28;20032;-81
2024/01/07 05:43:27;;;;;;;10.85;5.03;;;;;;;-148.88;100.00;-17125.47;5036875;28;20484;-81
2024/01/07 05:45:53;;;;;;;7.78;3.60;;;;;;;-148.88;100.00;-17125.47;5037233;28;20120;-81
2024/01/07 05:48:21;;;;;;;9.10;4.32;;;;;;;-148.88;100.00;-17125.47;5038540;28;20053;-81
2024/01/07 05:50:47;;;;;;;9.50;4.72;;;;;;;-148.88;100.00;-17125.47;5038833;28;20500;-81
2024/01/07 05:53:12;;;;;;;11.50;5.05;;;;;;;-148.88;100.00;-17125.47;5040208;28;20025;-81
2024/01/07 05:55:37;;;;;;;10.10;3.78;;;;;;;-148.88;100.00;-17125.47;5039948;28;20021;-81
2024/01/07 05:58:03;;;;;;;6.57;3.40;;;;;;;-148.88;100.00;-17125.47;5039692;28;20388;-81
2024/01/07 06:00:28;;;;;;;9.23;3.75;;;;;;;-148.88;100.00;-17125.47;5036762;28;20117;-81
2024/01/07 06:02:54;;;;;;;11.32;5.13;;;;;;;-148.88;100.00;-17125.47;5036471;28;20480;-81
2024/01/07 06:05:21;;;;;;;7.85;4.20;;;;;;;-148.88;100.00;-17125.47;5036487;28;20053;-81
2024/01/07 06:07:47;;;;;;;8.68;3.70;;;;;;;-148.88;100.00;-17125.47;5037345;28;20448;-81
2024/01/07 06:10:12;;;;;;;10.98;3.88;;;;;;;-148.88;100.00;-17125.47;5037000;28;20022;-81
2024/01/07 06:12:39;;;;;;;7.10;3.33;;;;;;;-148.88;100.00;-17125.47;5037373;28;20427;-81
2024/01/07 06:15:05;;;;;;;5.72;3.33;;;;;;;-148.88;100.00;-17125.47;5037429;28;20026;-81
2024/01/07 06:17:31;;;;;;;9.23;3.70;;;;;;;-148.88;100.00;-17125.47;5035890;28;20499;-81
2024/01/07 06:19:56;;;;;;;5.53;3.25;;;;;;;-148.88;100.00;-17125.47;5037934;28;20477;-81
2024/01/07 06:22:21;;;;;;;7.03;3.05;;;;;;;-148.88;100.00;-17125.47;5036500;28;20481;-81
2024/01/07 06:24:47;;;;;;;6.65;3.83;;;;;;;-148.88;100.00;-17125.47;5039392;28;20028;-81
2024/01/07 06:27:13;;;;;;;6.80;3.30;;;;;;;-148.88;100.00;-17125.47;5043906;28;20029;-81
2024/01/07 06:29:38;;;;;;;8.43;3.70;;;;;;;-148.88;100.00;-17125.47;5040805;28;20096;-81
2024/01/07 06:32:04;;;;;;;8.27;3.75;;;;;;;-148.88;100.00;-17125.47;5042360;28;20057;-81
2024/01/07 06:34:29;;;;;;;8.85;2.80;;;;;;;-148.88;100.00;-17125.47;5040847;28;20079;-81
2024/01/07 06:36:54;;;;;;;5.88;3.00;;;;;;;-148.88;100.00;-17125.47;5042685;28;20018;-81
2024/01/07 06:39:20;;;;;;;8.50;3.28;;;;;;;-148.88;100.00;-17125.47;5040761;28;20057;-81
2024/01/07 06:41:45;;;;;;;8.50;2.80;;;;;;;-148.88;100.00;-17125.47;5040631;28;20515;-81
2024/01/07 06:44:10;;;;;;;5.35;2.60;;;;;;;-148.88;100.00;-17125.47;5040560;28;20468;-81
2024/01/07 06:46:36;;;;;;;5.32;2.63;;;;;;;-148.88;100.00;-17125.47;5036802;28;20032;-81
2024/01/07 06:49:01;;;;;;;8.02;2.95;;;;;;;-148.88;100.00;-17125.47;5034452;28;20388;-81
2024/01/07 06:51:26;;;;;;;10.75;3.13;;;;;;;-148.88;100.00;-17125.47;5034277;28;20075;-81
2024/01/07 06:53:52;;;;;;;5.68;2.38;;;;;;;-148.88;100.00;-17125.47;5036692;28;20048;-81
2024/01/07 06:56:17;;;;;;;10.63;2.63;;;;;;;-148.88;100.00;-17125.47;5036151;28;20488;-81
2024/01/07 06:58:43;;;;;;;5.25;2.75;;;;;;;-148.88;100.00;-17125.47;5037974;28;20388;-81
2024/01/07 07:01:09;;;;;;;8.10;2.97;;;;;;;-148.88;100.00;-17125.47;5037485;28;20057;-81
2024/01/07 07:03:34;;;;;;;9.48;2.95;;;;;;;-148.88;100.00;-17125.47;5036599;28;20507;-81
2024/01/07 07:05:59;;;;;;;8.38;2.92;;;;;;;-148.88;100.00;-17125.47;5037107;28;20026;-81
2024/01/07 07:08:24;;;;;;;8.98;2.90;;;;;;;-148.88;100.00;-17125.47;5036736;28;20033;-81
2024/01/07 07:10:50;;;;;;;6.80;2.80;;;;;;;-148.88;100.00;-17125.47;5038892;28;20040;-81
2024/01/07 07:13:15;;;;;;;6.18;2.58;;;;;;;-148.88;100.00;-17125.47;5037417;28;20017;-81
2024/01/07 07:15:40;;;;;;;8.05;2.83;;;;;;;-148.88;100.00;-17125.47;5036668;28;20021;-81
2024/01/07 07:18:06;;;;;;;4.03;2.22;;;;;;;-148.88;100.00;-17125.47;5040521;28;20121;-81
2024/01/07 07:20:31;;;;;;;6.78;2.63;;;;;;;-148.88;100.00;-17125.47;5039733;28;20061;-81
2024/01/07 07:22:56;;;;;;;8.10;2.97;;;;;;;-148.88;100.00;-17125.47;5039690;28;20029;-80
2024/01/07 07:25:22;;;;;;;6.57;2.13;;;;;;;-148.88;100.00;-17125.47;5039579;28;20030;-80
2024/01/07 07:27:47;;;;;;;7.22;2.83;;;;;;;-148.88;100.00;-17125.47;5039910;28;20033;-80
2024/01/07 07:30:13;;;;;;;7.78;2.78;;;;;;;-148.88;100.00;-17125.47;5039009;28;20084;-81
2024/01/07 07:32:41;;;;;;;6.28;2.95;;;;;;;-148.88;100.00;-17125.47;5041974;28;20443;-81
2024/01/07 07:35:07;;;;;;;7.65;4.10;;;;;;;-148.88;100.00;-17125.47;5039262;28;20045;-81
2024/01/07 07:37:32;;;;;;;8.10;3.38;;;;;;;-148.88;100.00;-17125.47;5039243;28;20017;-80
2024/01/07 07:39:58;;;;;;;6.90;3.15;;;;;;;-148.88;100.00;-17125.47;5040183;28;20045;-80
2024/01/07 07:42:23;;;;;;;6.05;2.50;;;;;;;-148.88;100.00;-17125.47;5042950;28;20385;-80
2024/01/07 07:44:51;;;;;;;12.85;3.80;;;;;;;-148.88;100.00;-17125.47;5041372;28;20021;-81
2024/01/07 07:47:16;;;;;;;6.75;3.00;;;;;;;-148.88;100.00;-17125.47;5039569;28;20079;-80
2024/01/07 07:49:41;;;;;;;5.90;2.97;;;;;;;-148.88;100.00;-17125.47;5043436;28;20022;-81
2024/01/07 07:52:08;;;;;;;7.75;3.60;;;;;;;-148.88;100.00;-17125.47;5044978;28;20033;-80
2024/01/07 07:54:34;;;;;;;8.00;3.35;;;;;;;-148.88;100.00;-17125.47;5043663;28;20029;-80
2024/01/07 07:56:59;;;;;;;5.30;2.42;;;;;;;-148.88;100.00;-17125.47;5036922;28;20025;-80
2024/01/07 07:59:24;;;;;;;7.00;2.03;;;;;;;-148.88;100.00;-17125.47;5037409;28;20099;-80
2024/01/07 08:01:50;;;;;;;5.78;3.03;;;;;;;-148.88;100.00;-17125.47;5039458;28;20025;-80
2024/01/07 08:04:15;;;;;;;4.82;2.40;;;;;;;-148.88;100.00;-17125.47;5037257;28;20024;-80
2024/01/07 08:06:42;;;;;;;5.75;2.50;;;;;;;-148.88;100.00;-17125.47;5041494;28;20029;-81
2024/01/07 08:09:08;;;;;;;11.48;2.80;;;;;;;-148.88;100.00;-17125.47;5039367;28;20045;-80
2024/01/07 08:11:34;;;;;;;6.93;2.60;;;;;;;-148.88;100.00;-17125.47;5041334;28;20029;-80
2024/01/07 08:14:01;;;;;;;8.90;3.55;;;;;;;-148.88;100.00;-17125.47;5041540;28;20026;-80
2024/01/07 08:16:26;;;;;;;5.18;2.75;;;;;;;-148.88;100.00;-17125.47;5040378;28;20037;-80
2024/01/07 08:18:52;;;;;;;6.82;2.38;;;;;;;-148.88;100.00;-17125.47;5040987;28;20035;-80
2024/01/07 08:21:17;;;;;;;6.20;2.22;;;;;;;-148.88;100.00;-17125.47;5040218;28;20116;-81
2024/01/07 08:23:42;;;;;;;4.07;2.15;;;;;;;-148.88;100.00;-17125.47;5042867;28;20033;-80
2024/01/07 08:26:07;;;;;;;6.00;2.20;;;;;;;-148.88;100.00;-17125.47;5040777;28;20025;-81
2024/01/07 08:28:33;;;;;;;6.47;1.92;;;;;;;-148.88;100.00;-17125.47;5041680;28;20029;-80
2024/01/07 08:30:58;;;;;;;5.57;1.90;;;;;;;-148.88;100.00;-17125.47;5041797;28;20029;-79
2024/01/07 08:33:24;;;;;;;4.13;2.13;;;;;;;-148.88;100.00;-17125.47;5038578;28;20017;-80
2024/01/07 08:35:49;;;;;;;5.00;2.00;;;;;;;-148.88;100.00;-17125.47;5038535;28;20029;-80
2024/01/07 08:38:14;;;;;;;3.35;1.98;;;;;;;-148.88;100.00;-17125.47;5038412;28;20021;-80
2024/01/07 08:40:40;;;;;;;4.13;2.17;;;;;;;-148.88;100.00;-17125.47;5042684;28;20022;-80
2024/01/07 08:43:05;;;;;;;5.68;2.90;;;;;;;-148.88;100.00;-17125.47;5042687;28;20045;-80
2024/01/07 08:45:31;;;;;;;2.72;1.42;;;;;;;-148.88;100.00;-17125.47;5042483;28;20033;-80
2024/01/07 08:47:56;;;;;;;7.50;2.10;;;;;;;-148.88;100.00;-17125.47;5040248;28;20033;-80
2024/01/07 08:50:22;;;;;;;3.38;2.10;;;;;;;-148.88;100.00;-17125.47;5039716;28;20021;-80
2024/01/07 08:52:47;;;;;;;5.60;2.15;;;;;;;-148.88;100.00;-17125.47;5041806;28;20095;-80
2024/01/07 08:55:12;;;;;;;3.05;1.35;;;;;;;-148.88;100.00;-17125.47;5041598;28;20558;-80
2024/01/07 08:57:38;;;;;;;8.45;3.17;;;;;;;-148.88;99.52;-17125.47;5039958;28;20388;-80
2024/01/07 09:00:05;;;;;;;4.47;2.00;;;;;;;-148.88;100.00;-17125.47;5040691;28;20029;-80
2024/01/07 09:02:30;;;;;;;3.50;1.83;;;;;;;-148.88;100.00;-17125.47;5038821;28;20021;-80
2024/01/07 09:04:57;;;;;;;6.13;1.83;;;;;;;-148.88;100.00;-17125.47;5039372;28;20068;-79
2024/01/07 09:07:23;;;;;;;4.30;1.83;;;;;;;-148.88;100.00;-17125.47;5038010;28;20047;-80
2024/01/07 09:09:48;;;;;;;3.65;1.65;;;;;;;-148.88;100.00;-17125.47;5040432;28;20065;-80
2024/01/07 09:12:14;;;;;;;4.25;1.83;;;;;;;-148.88;100.00;-17125.47;5039641;28;20026;-79
2024/01/07 09:14:39;;;;;;;4.63;2.17;;;;;;;-148.88;100.00;-17125.47;5040187;28;20021;-81
2024/01/07 09:17:05;;;;;;;5.75;2.00;;;;;;;-148.88;100.00;-17125.47;5041942;28;20052;-80
2024/01/07 09:19:30;;;;;;;5.07;2.20;;;;;;;-148.88;100.00;-17125.47;5041360;28;20083;-80
2024/01/07 09:21:55;;;;;;;6.55;2.28;;;;;;;-148.88;100.00;-17125.47;5041457;28;20029;-80
2024/01/07 09:24:21;;;;;;;3.05;1.65;;;;;;;-148.88;100.00;-17125.47;5041978;28;20030;-80
2024/01/07 09:26:46;;;;;;;4.93;1.85;;;;;;;-148.88;100.00;-17125.47;5041099;28;20022;-80
2024/01/07 09:29:14;;;;;;;5.00;2.22;;;;;;;-148.88;100.00;-17125.47;5039109;28;20407;-80
2024/01/07 09:31:40;;;;;;;4.68;2.13;;;;;;;-148.88;100.00;-17125.47;5041209;28;20033;-80
2024/01/07 09:34:06;;;;;;;3.95;1.98;;;;;;;-148.88;100.00;-17125.47;5040751;28;20104;-80
2024/01/07 09:36:35;;;;;;;5.93;2.13;;;;;;;-148.88;100.00;-17125.47;5039847;28;20021;-80
2024/01/07 09:39:01;;;;;;;5.00;2.10;;;;;;;-148.88;100.00;-17125.47;5039068;28;20032;-80
2024/01/07 09:41:26;;;;;;;3.45;2.10;;;;;;;-148.88;100.00;-17125.47;5038178;28;20029;-80
2024/01/07 09:43:53;;;;;;;7.43;2.63;;;;;;;-148.88;100.00;-17125.47;5038397;28;20101;-80
2024/01/07 09:46:18;;;;;;;3.65;1.83;;;;;;;-148.88;100.00;-17125.47;5037481;28;20111;-80
2024/01/07 09:48:44;;;;;;;5.20;2.17;;;;;;;-148.88;100.00;-17125.47;5038644;28;20068;-80
2024/01/07 09:51:11;;;;;;;4.05;1.88;;;;;;;-148.88;100.00;-17125.47;5035831;28;20112;-79
2024/01/07 09:53:39;;;;;;;5.18;2.05;;;;;;;-148.88;100.00;-17125.47;5035752;28;20096;-79
2024/01/07 09:56:25;;;;;;;4.60;2.13;;;;;;;-148.88;100.00;-17125.47;5035596;28;20032;-79
2024/01/07 09:58:50;;;;;;;6.72;3.13;;;;;;;-148.88;100.00;-17125.47;5035475;28;20032;-78
2024/01/07 10:01:19;;;;;;;4.65;2.83;;;;;;;-148.88;100.00;-17125.47;5035490;28;20097;-79
2024/01/07 10:03:45;;;;;;;8.55;3.65;;;;;;;-148.88;100.00;-17125.47;5037302;28;20029;-79
2024/01/07 10:06:11;;;;;;;6.93;2.38;;;;;;;-148.88;100.00;-17125.47;5036513;28;20469;-79
2024/01/07 10:08:37;;;;;;;7.15;2.80;;;;;;;-148.88;100.00;-17125.47;5034713;28;20097;-79
2024/01/07 10:11:04;;;;;;;7.25;2.70;;;;;;;-148.88;100.00;-17125.47;5034510;28;20392;-79
2024/01/07 10:13:30;;;;;;;7.50;3.17;;;;;;;-148.88;100.00;-17125.47;5035283;28;20400;-79
2024/01/07 10:15:55;;;;;;;5.85;2.38;;;;;;;-148.88;100.00;-17125.47;5036413;28;20037;-79
2024/01/07 10:18:21;;;;;;;6.82;2.95;;;;;;;-148.88;100.00;-17125.47;5039736;28;20026;-79
2024/01/07 10:20:46;;;;;;;7.32;2.83;;;;;;;-148.88;100.00;-17125.47;5039016;28;20498;-79
2024/01/07 10:23:12;;;;;;;4.13;2.25;;;;;;;-148.88;100.00;-17125.47;5037105;28;20543;-79
2024/01/07 10:25:37;;;;;;;5.97;2.53;;;;;;;-148.88;100.00;-17125.47;5036235;28;20037;-79
2024/01/07 10:28:03;;;;;;;9.50;3.55;;;;;;;-148.88;100.00;-17125.47;5036079;28;20113;-79
2024/01/07 10:30:29;;;;;;;6.13;2.70;;;;;;;-148.88;100.00;-17125.47;5035131;28;20511;-79
2024/01/07 10:32:58;;;;;;;7.82;2.83;;;;;;;-148.88;100.00;-17125.47;5036388;28;20032;-79
2024/01/07 10:35:33;;;;;;;6.25;2.65;;;;;;;-148.88;100.00;-17125.47;5035180;28;20025;-79
2024/01/07 10:38:02;;;;;;;4.35;2.22;;;;;;;-148.88;100.00;-17125.47;5036251;28;20087;-79
2024/01/07 10:40:29;;;;;;;4.70;2.60;;;;;;;-148.88;100.00;-17125.47;5035833;28;20021;-79
2024/01/07 10:42:55;;;;;;;6.38;2.85;;;;;;;-148.88;100.00;-17125.47;5036178;28;20029;-79
2024/01/07 10:45:22;;;;;;;4.25;2.30;;;;;;;-148.88;100.00;-17125.47;5036911;28;20500;-79
2024/01/07 10:47:54;;;;;;;7.68;2.42;;;;;;;-148.88;100.00;-17125.47;5036580;28;20083;-80
2024/01/07 10:50:21;;;;;;;4.15;2.10;;;;;;;-148.88;100.00;-17125.47;5036434;28;20037;-79